Wattay International Airport
VLVT : now visible

Airfield :











YOU CAN JOIN US ON...

 
LOGIN :

Register | Disclaimer

   EN    FR    IT 

 









Legend :    VFR   Marginal VFR   IFR   Intensive IFR   Very Intensive IFR
Visi :
Ceiling :
>= 8 km
>= 3000ft
5 to 8 km
1000 to 3000 ft
1500m to 5 km
500 to 1000 ft
800 to 1500m
200 to 500 ft
< 800m
< 200 ft
Symbols :   Thunderstorms  Fog  Heavy snow  Heavy precipitations  Wind > 20 kt






- Airport Elevation : 564 ft
- IATA code : VTE


VLVT - Wattay International

CURRENT METAR :
  • 211400Z 00000KT 5000 BR NSC 30/25 Q1004 NOSIG

EXPIRED METARs :
  • 211330Z 00000KT 6000 NSC 30/26 Q1004 NOSIG
  • 211300Z 00000KT 6000 NSC 31/26 Q1003 NOSIG
  • 211230Z 00000KT 6000 NSC 31/26 Q1003 NOSIG
  • 211200Z 14002KT 6000 NSC 32/27 Q1002 NOSIG
  • 211130Z 16002KT 6000 NSC 34/28 Q1002 NOSIG
  • 211100Z 14002KT 6000 NSC 35/29 Q1002 NOSIG
  • 211000Z 18004KT 7000 FEW020 37/27 Q1002 NOSIG
  • 210900Z 27006KT 7000 FEW020 39/27 Q1002 NOSIG

TAF TAF VLVT
Valid from the 21 at 12:00 until the 22 at 12:00 UTC


211100Z 2112/2212 24004KT 5000 BR FEW020 FEW200
VLVT FIR / Asia



MET'MAP, your aeronautical weather chart ! - Copyright ORBIFLY December 2007 - Disclaimer

ORBIFLY MET'MAP TEAM :

Programming & Development : Alexandra Zaïnal
Original concept : Baudouin d'Aumeries
Technical & hardware support : Manuel Goepfert
Assistance : Marc-Olivier Méhu




SOURCES & CREDITS :

   NOAA       Earth
Advisory